Home > Products > Valid Products > MTR

000
SAUS43 KDTX 292252
MTRP58
METAR KP58 292251Z AUTO 04003KT 06/02 A3012 RMK AO1 SLP205 T00610017





000
SAUS43 KDTX 292153
MTRP58
METAR KP58 292151Z AUTO 36004KT 07/02 A3013 RMK AO1 SLP207 T00670022





000
SAUS43 KDTX 292054
MTRP58
METAR KP58 292051Z AUTO 01003KT 07/02 A3014 RMK AO1 SLP212 T00670022
53013





000
SAUS43 KDTX 291953
MTRP58
METAR KP58 291951Z AUTO 36004KT 07/03 A3012 RMK AO1 SLP204 T00670028





000
SAUS43 KDTX 291853
MTRP58
METAR KP58 291851Z AUTO 03005KT 06/02 A3012 RMK AO1 SLP205 T00610022





000
SAUS43 KDTX 291753
MTRP58
METAR KP58 291751Z AUTO 12005KT 07/02 A3010 RMK AO1 SLP199 T00720022
10072 20050 58003





000
SAUS43 KDTX 291652
MTRP58
METAR KP58 291651Z AUTO 07004KT 06/02 A3011 RMK AO1 SLP202 T00560022





000
SAUS43 KDTX 291553
MTRP58
METAR KP58 291551Z AUTO 00000KT 06/02 A3011 RMK AO1 SLP202 T00610017





000
SAUS43 KDTX 291452
MTRP58
METAR KP58 291451Z AUTO 08006KT 05/02 A3011 RMK AO1 SLP202 T00500017
51010





000
SAUS43 KDTX 291358 COR
MTRP58
METAR KP58 291351Z AUTO 13008KT 06/01 A3009 RMK AO1 SLP198 T00610011





000
SAUS43 KDTX 291354
MTRP58
METAR KP58 291351Z AUTO 13008KT 06/01 A3009 RMK AO1 SLP198 T00610011





000
SAUS43 KDTX 291354
MTRP58
METAR KP58 291351Z AUTO 13008KT 06/01 A3009 RMK AO1 SLP198 T00610011





000
SAUS43 KDTX 291252
MTRP58
METAR KP58 291251Z AUTO 08008KT 06/02 A3009 RMK AO1 SLP198 T00560017





000
SAUS43 KDTX 291153
MTRP58
METAR KP58 291151Z AUTO 12005KT 05/02 A3008 RMK AO1 SLP192 T00500022
10056 20044 53010





000
SAUS43 KDTX 291153
MTRP58
METAR KP58 291151Z AUTO 12005KT 05/02 A3008 RMK AO1 SLP192 T00500022
10056 20044 53010





000
SAUS43 KDTX 291054
MTRP58
METAR KP58 291051Z AUTO 13003KT 05/02 A3005 RMK AO1 SLP183 T00500022





000
SAUS43 KDTX 291054
MTRP58
METAR KP58 291051Z AUTO 13003KT 05/02 A3005 RMK AO1 SLP183 T00500022





000
SAUS43 KDTX 290953
MTRP58
METAR KP58 290951Z AUTO 11007KT 06/02 A3005 RMK AO1 SLP182 T00560017





000
SAUS43 KDTX 290854
MTRP58
METAR KP58 290851Z AUTO 10004KT 06/02 A3005 RMK AO1 SLP182 T00560022
53000





000
SAUS43 KDTX 290754
MTRP58
METAR KP58 290751Z AUTO 11003KT 06/02 A3003 RMK AO1 SLP177 T00560017





000
SAUS43 KDTX 290653
MTRP58
METAR KP58 290651Z AUTO 13005KT 05/02 A3004 RMK AO1 SLP178 T00500017





000
SAUS43 KDTX 290552
MTRP58
METAR KP58 290551Z AUTO 09004KT 05/02 A3005 RMK AO1 SLP181 T00500022
10050 20044 56002





000
SAUS43 KDTX 290552
MTRP58
METAR KP58 290551Z AUTO 09004KT 05/02 A3005 RMK AO1 SLP181 T00500022
10050 20044 56002





000
SAUS43 KDTX 290454
MTRP58
METAR KP58 290451Z AUTO 07009KT 05/02 A3005 RMK AO1 SLP181 T00500017
400500033





000
SAUS43 KDTX 290352
MTRP58
METAR KP58 290351Z AUTO 06009KT 04/02 A3005 RMK AO1 SLP181 T00440017





000
SAUS43 KDTX 290254
MTRP58
METAR KP58 290251Z AUTO 03009KT 04/01 A3005 RMK AO1 SLP183 T00440011
51002





000
SAUS43 KDTX 290154
MTRP58
METAR KP58 290151Z AUTO 04010KT 04/01 A3005 RMK AO1 SLP182 T00440006





000
SAUS43 KDTX 290054
MTRP58
METAR KP58 290051Z AUTO 04009KT 04/01 A3005 RMK AO1 SLP182 T00440011





000
SAUS43 KDTX 290054
MTRP58
METAR KP58 290051Z AUTO 04009KT 04/01 A3005 RMK AO1 SLP182 T00440011





000
SAUS43 KDTX 282352
MTRP58
METAR KP58 282351Z AUTO 03012KT 04/01 A3005 RMK AO1 SLP181 T00440006
10050 20039 53001





000
SAUS43 KDTX 282352
MTRP58
METAR KP58 282351Z AUTO 03012KT 04/01 A3005 RMK AO1 SLP181 T00440006
10050 20039 53001





000
SAUS43 KDTX 282252
MTRP58
METAR KP58 282251Z AUTO 04013KT 04/01 A3005 RMK AO1 SLP181 T00440006





000
SAUS43 KDTX 282152
MTRP58
METAR KP58 282151Z AUTO 03017KT 04/01 A3004 RMK AO1 SLP178 T00440011





000
SAUS43 KDTX 282053
MTRP58
METAR KP58 282051Z AUTO 03015KT 04/02 A3004 RMK AO1 SLP180 T00440017
53002





000
SAUS43 KDTX 282053
MTRP58
METAR KP58 282051Z AUTO 03015KT 04/02 A3004 RMK AO1 SLP180 T00440017
53002





000
SAUS43 KDTX 281952
MTRP58
METAR KP58 281951Z AUTO 03014KT 04/02 A3004 RMK AO1 SLP180 T00440017





000
SAUS43 KDTX 281952
MTRP58
METAR KP58 281951Z AUTO 03014KT 04/02 A3004 RMK AO1 SLP180 T00440017





000
SAUS43 KDTX 281852
MTRP58
METAR KP58 281851Z AUTO 04013KT 04/02 A3003 RMK AO1 SLP175 T00440017





000
SAUS43 KDTX 281754
MTRP58
METAR KP58 281751Z AUTO 06011KT 04/01 A3004 RMK AO1 SLP178 T00440011
10050 20039 56008





000
SAUS43 KDTX 281654
MTRP58
METAR KP58 281651Z AUTO 06012KT 04/02 A3004 RMK AO1 SLP181 T00440017





000
SAUS43 KDTX 281553
MTRP58
METAR KP58 281551Z AUTO 06013KT 04/01 A3005 RMK AO1 SLP182 T00440011





000
SAUS43 KDTX 281453
MTRP58
METAR KP58 281451Z AUTO 08012KT 04/01 A3006 RMK AO1 SLP188 T00440006
53006





000
SAUS43 KDTX 281354
MTRP58
METAR KP58 281351Z AUTO 07011KT 04/00 A3006 RMK AO1 SLP185 T00440000





000
SAUS43 KDTX 281252
MTRP58
METAR KP58 281251Z AUTO 06013KT 04/M01 A3004 RMK AO1 SLP181
T00441006





000
SAUS43 KDTX 281153
MTRP58
METAR KP58 281151Z AUTO 06010KT 04/00 A3004 RMK AO1 SLP181 T00390000
10044 20033 53004





000
SAUS43 KDTX 281153
MTRP58
METAR KP58 281151Z AUTO 06010KT 04/00 A3004 RMK AO1 SLP181 T00390000
10044 20033 53004





000
SAUS43 KDTX 281054
MTRP58
METAR KP58 281051Z AUTO 06008KT 04/00 A3003 RMK AO1 SLP176 T00390000





000
SAUS43 KDTX 280954
MTRP58
METAR KP58 280951Z AUTO 06006KT 04/00 A3003 RMK AO1 SLP176 T00390000





000
SAUS43 KDTX 280852
MTRP58
METAR KP58 280851Z AUTO 06006KT 04/00 A3003 RMK AO1 SLP176 T00390000
51007





000
SAUS43 KDTX 280753
MTRP58
METAR KP58 280751Z AUTO 06007KT 04/M01 A3003 RMK AO1 SLP175
T00391006





000
SAUS43 KDTX 280652
MTRP58
METAR KP58 280651Z AUTO 11006KT 04/M01 A3003 RMK AO1 SLP175
T00391011





000
SAUS43 KDTX 280552
MTRP58
METAR KP58 280551Z AUTO 10008KT 03/M01 A3001 RMK AO1 SLP169
T00331006 10033 20006 55004





000
SAUS43 KDTX 280552
MTRP58
METAR KP58 280551Z AUTO 10008KT 03/M01 A3001 RMK AO1 SLP169
T00331006 10033 20006 55004





000
SAUS43 KDTX 280452
MTRP58
METAR KP58 280451Z AUTO 07011KT 03/M02 A2999 RMK AO1 SLP162
T00331017 400501006





000
SAUS43 KDTX 280452
MTRP58
METAR KP58 280451Z AUTO 07011KT 03/M02 A2999 RMK AO1 SLP162
T00331017 400501006





000
SAUS43 KDTX 280353
MTRP58
METAR KP58 280351Z AUTO 07007KT 03/M03 A3001 RMK AO1 SLP170
T00281028





000
SAUS43 KDTX 280254
MTRP58
METAR KP58 280251Z AUTO 00000KT 01/M03 A3002 RMK AO1 SLP174
T00061028 56002





000
SAUS43 KDTX 280154
MTRP58
METAR KP58 280151Z AUTO VRB04KT 03/M04 A3002 RMK AO1 SLP175
T00281039





000
SAUS43 KDTX 280054
MTRP58
METAR KP58 280051Z AUTO 08006KT 03/M03 A2999 RMK AO1 SLP164
T00281033





000
SAUS43 KDTX 272353
MTRP58
METAR KP58 272351Z AUTO 08004KT 03/M04 A3003 RMK AO1 SLP175
T00331039 10050 20033 53000





000
SAUS43 KDTX 272353
MTRP58
METAR KP58 272351Z AUTO 08004KT 03/M04 A3003 RMK AO1 SLP175
T00331039 10050 20033 53000





000
SAUS43 KDTX 272253
MTRP58
METAR KP58 272251Z AUTO 07006KT 04/M02 A3002 RMK AO1 SLP174
T00391017





000
SAUS43 KDTX 272152
MTRP58
METAR KP58 272151Z AUTO 12005KT 04/M01 A3001 RMK AO1 SLP169
T00441011





000
SAUS43 KDTX 272054
MTRP58
METAR KP58 272051Z AUTO 04003KT 04/M02 A3003 RMK AO1 SLP176
T00441022 55008





000
SAUS43 KDTX 271954
MTRP58
METAR KP58 271951Z AUTO 02007KT 05/M01 A3002 RMK AO1 SLP176
T00501006





000
SAUS43 KDTX 271954
MTRP58
METAR KP58 271951Z AUTO 02007KT 05/M01 A3002 RMK AO1 SLP176
T00501006





000
SAUS43 KDTX 271853
MTRP58
METAR KP58 271851Z AUTO 02005KT 05/M01 A3005 RMK AO1 SLP184
T00501006





000
SAUS43 KDTX 271853
MTRP58
METAR KP58 271851Z AUTO 02005KT 05/M01 A3005 RMK AO1 SLP184
T00501006





000
SAUS43 KDTX 271754
MTRP58
METAR KP58 271751Z AUTO 03007KT 04/M02 A3005 RMK AO1 SLP184
T00441017 10044 20039 55003





000
SAUS43 KDTX 271654
MTRP58
METAR KP58 271651Z AUTO 04015KT 04/M01 A3003 RMK AO1 SLP179
T00441011





000
SAUS43 KDTX 271654
MTRP58
METAR KP58 271651Z AUTO 04015KT 04/M01 A3003 RMK AO1 SLP179
T00441011





000
SAUS43 KDTX 271554
MTRP58
METAR KP58 271551Z AUTO 05014KT 04/M02 A3004 RMK AO1 SLP179
T00391017





000
SAUS43 KDTX 271454
MTRP58
METAR KP58 271451Z AUTO 05010KT 04/M01 A3006 RMK AO1 SLP186
T00441006 53008





000
SAUS43 KDTX 271354
MTRP58
METAR KP58 271351Z AUTO 06011KT 04/00 A3004 RMK AO1 SLP180 T00390000





000
SAUS43 KDTX 271254
MTRP58
METAR KP58 271251Z AUTO 06011KT 04/01 A3002 RMK AO1 SLP174 T00390006





000
SAUS43 KDTX 271254
MTRP58
METAR KP58 271251Z AUTO 06011KT 04/01 A3002 RMK AO1 SLP174 T00390006





000
SAUS43 KDTX 271153
MTRP58
METAR KP58 271151Z AUTO 06008KT 04/01 A3003 RMK AO1 SLP178 T00390011
10039 21006 53004





000
SAUS43 KDTX 271153
MTRP58
METAR KP58 271151Z AUTO 06008KT 04/01 A3003 RMK AO1 SLP178 T00390011
10039 21006 53004





000
SAUS43 KDTX 271054
MTRP58
METAR KP58 271051Z AUTO 06009KT 04/01 A3002 RMK AO1 SLP171 T00390011





000
SAUS43 KDTX 271054
MTRP58
METAR KP58 271051Z AUTO 06009KT 04/01 A3002 RMK AO1 SLP171 T00390011





000
SAUS43 KDTX 270954
MTRP58
METAR KP58 270951Z AUTO 03007KT 04/01 A3002 RMK AO1 SLP174 T00390006





000
SAUS43 KDTX 270853
MTRP58
METAR KP58 270851Z AUTO 31003KT 01/M02 A3002 RMK AO1 SLP175
T00061022 53010





000
SAUS43 KDTX 270754
MTRP58
METAR KP58 270751Z AUTO 34003KT 01/M03 A2997 RMK AO1 SLP158
T00061028





000
SAUS43 KDTX 270754
MTRP58
METAR KP58 270751Z AUTO 34003KT 01/M03 A2997 RMK AO1 SLP158
T00061028





000
SAUS43 KDTX 270654
MTRP58
METAR KP58 270651Z AUTO 28003KT M01/M03 A2999 RMK AO1 SLP165
T10061028





000
SAUS43 KDTX 270552
MTRP58
METAR KP58 270551Z AUTO 23003KT 01/M03 A2999 RMK AO1 SLP165
T00061028 10039 20006 50011





000
SAUS43 KDTX 270552
MTRP58
METAR KP58 270551Z AUTO 23003KT 01/M03 A2999 RMK AO1 SLP165
T00061028 10039 20006 50011





000
SAUS43 KDTX 270452
MTRP58
METAR KP58 270451Z AUTO 31003KT 01/M03 A3001 RMK AO1 SLP169
T00111033 400610006





000
SAUS43 KDTX 270353
MTRP58
METAR KP58 270351Z AUTO 00000KT 01/M02 A3000 RMK AO1 SLP167
T00111022





000
SAUS43 KDTX 270254
MTRP58
METAR KP58 270251Z AUTO 01007KT 03/M02 A2996 RMK AO1 SLP152
T00331017 58003





000
SAUS43 KDTX 270254
MTRP58
METAR KP58 270251Z AUTO 01007KT 03/M02 A2996 RMK AO1 SLP152
T00331017 58003





000
SAUS43 KDTX 270153
MTRP58
METAR KP58 270151Z AUTO 01006KT 03/M01 A2996 RMK AO1 SLP153
T00331011





000
SAUS43 KDTX 270053
MTRP58
METAR KP58 270051Z AUTO 36006KT 03/M01 A2997 RMK AO1 SLP157
T00331011





000
SAUS43 KDTX 262354
MTRP58
METAR KP58 262351Z AUTO 35006KT 04/M01 A2997 RMK AO1 SLP155
T00391006 10050 20033 58002





000
SAUS43 KDTX 262354
MTRP58
METAR KP58 262351Z AUTO 35006KT 04/M01 A2997 RMK AO1 SLP155
T00391006 10050 20033 58002





    US Dept of Commerce
    National Oceanic and Atmospheric Administration
    National Weather Service
    1325 East West Highway
    Silver Spring, MD 20910
    Page Author: NWS Internet Services Team
Disclaimer
Information Quality
Credits
Glossary
Privacy Policy
Freedom of Information Act (FOIA)
About Us
Career Opportunities